sensor_id;sensor_type;location;lat;lon;timestamp;temperature;humidity
31991;DHT22;18508;49.386;8.370;2023-04-24T00:00:46;10.80;99.90
31991;DHT22;18508;49.386;8.370;2023-04-24T00:03:14;10.80;99.90
31991;DHT22;18508;49.386;8.370;2023-04-24T00:05:48;10.70;99.90
31991;DHT22;18508;49.386;8.370;2023-04-24T00:08:16;10.70;99.90
31991;DHT22;18508;49.386;8.370;2023-04-24T00:10:47;10.90;99.90
31991;DHT22;18508;49.386;8.370;2023-04-24T00:13:16;10.80;99.90
31991;DHT22;18508;49.386;8.370;2023-04-24T00:15:44;10.80;99.90
31991;DHT22;18508;49.386;8.370;2023-04-24T00:18:13;10.90;99.90
31991;DHT22;18508;49.386;8.370;2023-04-24T00:20:41;10.90;99.90
31991;DHT22;18508;49.386;8.370;2023-04-24T00:23:10;10.90;99.90
31991;DHT22;18508;49.386;8.370;2023-04-24T00:25:40;11.00;99.90
31991;DHT22;18508;49.386;8.370;2023-04-24T00:28:10;11.00;99.90
31991;DHT22;18508;49.386;8.370;2023-04-24T00:30:38;11.00;99.90
31991;DHT22;18508;49.386;8.370;2023-04-24T00:33:06;11.00;99.90
31991;DHT22;18508;49.386;8.370;2023-04-24T00:35:35;11.00;99.90
31991;DHT22;18508;49.386;8.370;2023-04-24T00:38:03;10.90;99.90
31991;DHT22;18508;49.386;8.370;2023-04-24T00:40:34;10.90;99.90
31991;DHT22;18508;49.386;8.370;2023-04-24T00:43:02;10.90;99.90
31991;DHT22;18508;49.386;8.370;2023-04-24T00:45:32;10.90;99.90
31991;DHT22;18508;49.386;8.370;2023-04-24T00:48:01;10.90;99.90
31991;DHT22;18508;49.386;8.370;2023-04-24T00:50:30;10.90;99.90
31991;DHT22;18508;49.386;8.370;2023-04-24T00:52:59;10.90;99.90
31991;DHT22;18508;49.386;8.370;2023-04-24T00:55:28;10.90;99.90
31991;DHT22;18508;49.386;8.370;2023-04-24T00:57:56;10.90;99.90
31991;DHT22;18508;49.386;8.370;2023-04-24T01:00:26;10.90;99.90
31991;DHT22;18508;49.386;8.370;2023-04-24T01:02:59;10.90;99.90
31991;DHT22;18508;49.386;8.370;2023-04-24T01:05:30;10.90;99.90
31991;DHT22;18508;49.386;8.370;2023-04-24T01:07:59;10.80;99.90
31991;DHT22;18508;49.386;8.370;2023-04-24T01:10:29;10.90;99.90
31991;DHT22;18508;49.386;8.370;2023-04-24T01:12:58;10.70;99.90
31991;DHT22;18508;49.386;8.370;2023-04-24T01:15:27;10.80;99.90
31991;DHT22;18508;49.386;8.370;2023-04-24T01:17:58;10.80;99.90
31991;DHT22;18508;49.386;8.370;2023-04-24T01:20:29;10.80;99.90
31991;DHT22;18508;49.386;8.370;2023-04-24T01:23:00;10.70;99.90
31991;DHT22;18508;49.386;8.370;2023-04-24T01:25:30;10.70;99.90
31991;DHT22;18508;49.386;8.370;2023-04-24T01:27:59;10.70;99.90
31991;DHT22;18508;49.386;8.370;2023-04-24T01:30:28;10.80;99.90
31991;DHT22;18508;49.386;8.370;2023-04-24T01:32:57;10.80;99.90
31991;DHT22;18508;49.386;8.370;2023-04-24T01:35:26;10.80;99.90
31991;DHT22;18508;49.386;8.370;2023-04-24T01:37:56;10.80;99.90
31991;DHT22;18508;49.386;8.370;2023-04-24T01:40:26;10.80;99.90
31991;DHT22;18508;49.386;8.370;2023-04-24T01:42:56;10.80;99.90
31991;DHT22;18508;49.386;8.370;2023-04-24T01:45:27;10.80;99.90
31991;DHT22;18508;49.386;8.370;2023-04-24T01:47:56;10.90;99.90
31991;DHT22;18508;49.386;8.370;2023-04-24T01:50:24;10.90;99.90
31991;DHT22;18508;49.386;8.370;2023-04-24T01:52:53;10.90;99.90
31991;DHT22;18508;49.386;8.370;2023-04-24T01:55:21;10.90;99.90
31991;DHT22;18508;49.386;8.370;2023-04-24T01:57:52;11.00;99.90
31991;DHT22;18508;49.386;8.370;2023-04-24T02:00:22;11.00;99.90
31991;DHT22;18508;49.386;8.370;2023-04-24T02:02:51;10.90;99.90
31991;DHT22;18508;49.386;8.370;2023-04-24T02:05:20;11.00;99.90
31991;DHT22;18508;49.386;8.370;2023-04-24T02:07:47;11.00;99.90
31991;DHT22;18508;49.386;8.370;2023-04-24T02:10:16;11.00;99.90
31991;DHT22;18508;49.386;8.370;2023-04-24T02:12:44;11.00;99.90
31991;DHT22;18508;49.386;8.370;2023-04-24T02:15:16;11.00;99.90
31991;DHT22;18508;49.386;8.370;2023-04-24T02:17:45;11.00;99.90
31991;DHT22;18508;49.386;8.370;2023-04-24T02:22:45;11.00;99.90
31991;DHT22;18508;49.386;8.370;2023-04-24T02:25:13;11.00;99.90
31991;DHT22;18508;49.386;8.370;2023-04-24T02:27:42;11.00;99.90
31991;DHT22;18508;49.386;8.370;2023-04-24T02:30:13;11.00;99.90
31991;DHT22;18508;49.386;8.370;2023-04-24T02:32:41;11.00;99.90
31991;DHT22;18508;49.386;8.370;2023-04-24T02:35:10;11.10;99.90
31991;DHT22;18508;49.386;8.370;2023-04-24T02:37:41;11.10;99.90
31991;DHT22;18508;49.386;8.370;2023-04-24T02:40:09;11.10;99.90
31991;DHT22;18508;49.386;8.370;2023-04-24T02:42:37;11.10;99.90
31991;DHT22;18508;49.386;8.370;2023-04-24T02:45:06;11.10;99.90
31991;DHT22;18508;49.386;8.370;2023-04-24T02:47:36;10.70;99.90
31991;DHT22;18508;49.386;8.370;2023-04-24T02:50:06;10.70;99.90
31991;DHT22;18508;49.386;8.370;2023-04-24T02:52:37;10.50;99.90
31991;DHT22;18508;49.386;8.370;2023-04-24T02:55:06;10.40;99.90
31991;DHT22;18508;49.386;8.370;2023-04-24T02:57:34;10.40;99.90
31991;DHT22;18508;49.386;8.370;2023-04-24T03:00:05;10.30;99.90
31991;DHT22;18508;49.386;8.370;2023-04-24T03:02:34;10.30;99.90
31991;DHT22;18508;49.386;8.370;2023-04-24T03:05:04;10.30;99.90
31991;DHT22;18508;49.386;8.370;2023-04-24T03:07:34;10.20;99.90
31991;DHT22;18508;49.386;8.370;2023-04-24T03:10:04;10.10;99.90
31991;DHT22;18508;49.386;8.370;2023-04-24T03:12:33;10.00;99.90
31991;DHT22;18508;49.386;8.370;2023-04-24T03:15:02;10.00;99.90
31991;DHT22;18508;49.386;8.370;2023-04-24T03:17:30;9.80;99.90
31991;DHT22;18508;49.386;8.370;2023-04-24T03:19:58;9.90;99.90
31991;DHT22;18508;49.386;8.370;2023-04-24T03:22:28;9.80;99.90
31991;DHT22;18508;49.386;8.370;2023-04-24T03:24:57;9.70;99.90
31991;DHT22;18508;49.386;8.370;2023-04-24T03:27:26;9.70;99.90
31991;DHT22;18508;49.386;8.370;2023-04-24T03:29:54;9.60;99.90
31991;DHT22;18508;49.386;8.370;2023-04-24T03:32:23;9.50;99.90
31991;DHT22;18508;49.386;8.370;2023-04-24T03:34:52;9.50;99.90
31991;DHT22;18508;49.386;8.370;2023-04-24T03:37:20;9.50;99.90
31991;DHT22;18508;49.386;8.370;2023-04-24T03:39:49;9.50;99.90
31991;DHT22;18508;49.386;8.370;2023-04-24T03:42:17;9.50;99.90
31991;DHT22;18508;49.386;8.370;2023-04-24T03:44:46;9.40;99.90
31991;DHT22;18508;49.386;8.370;2023-04-24T03:47:17;9.40;99.90
31991;DHT22;18508;49.386;8.370;2023-04-24T03:49:45;9.30;99.90
31991;DHT22;18508;49.386;8.370;2023-04-24T03:52:14;9.20;99.90
31991;DHT22;18508;49.386;8.370;2023-04-24T03:54:42;9.20;99.90
31991;DHT22;18508;49.386;8.370;2023-04-24T03:57:12;9.10;99.90
31991;DHT22;18508;49.386;8.370;2023-04-24T03:59:40;9.00;99.90
31991;DHT22;18508;49.386;8.370;2023-04-24T04:02:08;9.00;99.90
31991;DHT22;18508;49.386;8.370;2023-04-24T04:04:36;8.90;99.90
31991;DHT22;18508;49.386;8.370;2023-04-24T04:07:05;8.90;99.90
31991;DHT22;18508;49.386;8.370;2023-04-24T04:09:34;8.90;99.90
31991;DHT22;18508;49.386;8.370;2023-04-24T04:12:02;8.80;99.90
31991;DHT22;18508;49.386;8.370;2023-04-24T04:14:32;8.70;99.90
31991;DHT22;18508;49.386;8.370;2023-04-24T04:17:00;8.70;99.90
31991;DHT22;18508;49.386;8.370;2023-04-24T04:19:28;8.60;99.90
31991;DHT22;18508;49.386;8.370;2023-04-24T04:21:57;8.70;99.90
31991;DHT22;18508;49.386;8.370;2023-04-24T04:24:25;8.50;99.90
31991;DHT22;18508;49.386;8.370;2023-04-24T04:26:55;8.60;99.90
31991;DHT22;18508;49.386;8.370;2023-04-24T04:29:24;8.70;99.90
31991;DHT22;18508;49.386;8.370;2023-04-24T04:31:57;8.50;99.90
31991;DHT22;18508;49.386;8.370;2023-04-24T04:34:25;8.50;99.90
31991;DHT22;18508;49.386;8.370;2023-04-24T04:36:54;8.50;99.90
31991;DHT22;18508;49.386;8.370;2023-04-24T04:39:22;8.50;99.90
31991;DHT22;18508;49.386;8.370;2023-04-24T04:41:50;8.50;99.90
31991;DHT22;18508;49.386;8.370;2023-04-24T04:44:19;8.40;99.90
31991;DHT22;18508;49.386;8.370;2023-04-24T04:46:48;8.40;99.90
31991;DHT22;18508;49.386;8.370;2023-04-24T04:49:21;8.30;99.90
31991;DHT22;18508;49.386;8.370;2023-04-24T04:51:52;8.40;99.90
31991;DHT22;18508;49.386;8.370;2023-04-24T04:54:20;8.40;99.90
31991;DHT22;18508;49.386;8.370;2023-04-24T04:56:53;8.50;99.90
31991;DHT22;18508;49.386;8.370;2023-04-24T04:59:24;8.40;99.90
31991;DHT22;18508;49.386;8.370;2023-04-24T05:01:53;8.60;99.90
31991;DHT22;18508;49.386;8.370;2023-04-24T05:04:24;8.40;99.90
31991;DHT22;18508;49.386;8.370;2023-04-24T05:06:53;8.40;99.90
31991;DHT22;18508;49.386;8.370;2023-04-24T05:09:21;8.50;99.90
31991;DHT22;18508;49.386;8.370;2023-04-24T05:11:49;8.60;99.90
31991;DHT22;18508;49.386;8.370;2023-04-24T05:14:20;8.70;99.90
31991;DHT22;18508;49.386;8.370;2023-04-24T05:16:49;8.90;99.90
31991;DHT22;18508;49.386;8.370;2023-04-24T05:19:18;8.90;99.90
31991;DHT22;18508;49.386;8.370;2023-04-24T05:21:49;9.00;99.90
31991;DHT22;18508;49.386;8.370;2023-04-24T05:24:17;9.00;99.90
31991;DHT22;18508;49.386;8.370;2023-04-24T05:26:45;9.10;99.90
31991;DHT22;18508;49.386;8.370;2023-04-24T05:29:14;9.20;99.90
31991;DHT22;18508;49.386;8.370;2023-04-24T05:31:45;9.40;99.90
31991;DHT22;18508;49.386;8.370;2023-04-24T05:36:44;9.60;99.90
31991;DHT22;18508;49.386;8.370;2023-04-24T05:39:15;9.70;99.90
31991;DHT22;18508;49.386;8.370;2023-04-24T05:41:46;9.80;99.90
31991;DHT22;18508;49.386;8.370;2023-04-24T05:44:17;9.90;99.90
31991;DHT22;18508;49.386;8.370;2023-04-24T05:46:46;10.00;99.90
31991;DHT22;18508;49.386;8.370;2023-04-24T05:49:15;9.90;99.90
31991;DHT22;18508;49.386;8.370;2023-04-24T05:51:44;9.90;99.90
31991;DHT22;18508;49.386;8.370;2023-04-24T05:54:16;9.80;99.90
31991;DHT22;18508;49.386;8.370;2023-04-24T05:56:52;9.90;99.90
31991;DHT22;18508;49.386;8.370;2023-04-24T05:59:23;9.90;99.90
31991;DHT22;18508;49.386;8.370;2023-04-24T06:04:21;9.60;99.90
31991;DHT22;18508;49.386;8.370;2023-04-24T06:06:51;9.90;99.90
31991;DHT22;18508;49.386;8.370;2023-04-24T06:09:31;9.90;99.90
31991;DHT22;18508;49.386;8.370;2023-04-24T06:12:03;9.90;99.90
31991;DHT22;18508;49.386;8.370;2023-04-24T06:14:32;10.00;99.90
31991;DHT22;18508;49.386;8.370;2023-04-24T06:17:02;10.00;99.90
31991;DHT22;18508;49.386;8.370;2023-04-24T06:22:00;9.90;99.90
31991;DHT22;18508;49.386;8.370;2023-04-24T06:24:30;9.80;99.90
31991;DHT22;18508;49.386;8.370;2023-04-24T06:26:58;9.80;99.90
31991;DHT22;18508;49.386;8.370;2023-04-24T06:29:28;9.80;99.90
31991;DHT22;18508;49.386;8.370;2023-04-24T06:31:56;9.70;99.90
31991;DHT22;18508;49.386;8.370;2023-04-24T06:34:25;9.70;99.90
31991;DHT22;18508;49.386;8.370;2023-04-24T06:36:55;9.70;99.90
31991;DHT22;18508;49.386;8.370;2023-04-24T06:39:25;9.50;99.90
31991;DHT22;18508;49.386;8.370;2023-04-24T06:41:55;9.40;99.90
31991;DHT22;18508;49.386;8.370;2023-04-24T06:44:28;9.30;99.90
31991;DHT22;18508;49.386;8.370;2023-04-24T06:46:56;9.20;99.90
31991;DHT22;18508;49.386;8.370;2023-04-24T06:49:25;9.30;99.90
31991;DHT22;18508;49.386;8.370;2023-04-24T06:51:56;9.20;99.90
31991;DHT22;18508;49.386;8.370;2023-04-24T06:54:24;9.30;99.90
31991;DHT22;18508;49.386;8.370;2023-04-24T06:56:53;9.50;99.90
31991;DHT22;18508;49.386;8.370;2023-04-24T06:59:23;9.80;99.90
31991;DHT22;18508;49.386;8.370;2023-04-24T07:01:52;9.90;99.90
31991;DHT22;18508;49.386;8.370;2023-04-24T07:04:21;10.20;99.90
31991;DHT22;18508;49.386;8.370;2023-04-24T07:06:51;10.20;99.90
31991;DHT22;18508;49.386;8.370;2023-04-24T07:09:22;10.30;99.90
31991;DHT22;18508;49.386;8.370;2023-04-24T07:11:50;10.30;99.90
31991;DHT22;18508;49.386;8.370;2023-04-24T07:14:19;11.40;99.90
31991;DHT22;18508;49.386;8.370;2023-04-24T07:16:49;10.40;99.90
31991;DHT22;18508;49.386;8.370;2023-04-24T07:19:18;10.50;99.90
31991;DHT22;18508;49.386;8.370;2023-04-24T07:21:46;10.60;99.90
31991;DHT22;18508;49.386;8.370;2023-04-24T07:24:15;10.60;99.90
31991;DHT22;18508;49.386;8.370;2023-04-24T07:26:45;10.70;99.90
31991;DHT22;18508;49.386;8.370;2023-04-24T07:29:19;10.60;99.90
31991;DHT22;18508;49.386;8.370;2023-04-24T07:31:50;10.60;99.90
31991;DHT22;18508;49.386;8.370;2023-04-24T07:34:23;10.80;99.90
31991;DHT22;18508;49.386;8.370;2023-04-24T07:36:52;10.90;99.90
31991;DHT22;18508;49.386;8.370;2023-04-24T07:39:20;11.00;99.90
31991;DHT22;18508;49.386;8.370;2023-04-24T07:41:48;11.00;99.90
31991;DHT22;18508;49.386;8.370;2023-04-24T07:44:16;11.10;99.90
31991;DHT22;18508;49.386;8.370;2023-04-24T07:46:44;11.10;99.90
31991;DHT22;18508;49.386;8.370;2023-04-24T07:49:15;11.30;99.90
31991;DHT22;18508;49.386;8.370;2023-04-24T07:51:45;11.30;99.90
31991;DHT22;18508;49.386;8.370;2023-04-24T07:54:14;11.30;99.90
31991;DHT22;18508;49.386;8.370;2023-04-24T07:56:43;11.30;99.90
31991;DHT22;18508;49.386;8.370;2023-04-24T07:59:12;11.30;99.90
31991;DHT22;18508;49.386;8.370;2023-04-24T08:01:41;11.60;99.90
31991;DHT22;18508;49.386;8.370;2023-04-24T08:04:09;11.50;99.90
31991;DHT22;18508;49.386;8.370;2023-04-24T08:06:40;11.60;99.90
31991;DHT22;18508;49.386;8.370;2023-04-24T08:09:08;11.80;99.90
31991;DHT22;18508;49.386;8.370;2023-04-24T08:11:37;12.00;99.90
31991;DHT22;18508;49.386;8.370;2023-04-24T08:14:05;12.20;80.60
31991;DHT22;18508;49.386;8.370;2023-04-24T08:16:34;12.20;51.70
31991;DHT22;18508;49.386;8.370;2023-04-24T08:19:02;12.20;10.00
31991;DHT22;18508;49.386;8.370;2023-04-24T08:21:30;12.00;1.00
31991;DHT22;18508;49.386;8.370;2023-04-24T08:24:03;12.20;14.20
31991;DHT22;18508;49.386;8.370;2023-04-24T08:26:34;12.30;29.00
31991;DHT22;18508;49.386;8.370;2023-04-24T08:29:03;12.40;99.90
31991;DHT22;18508;49.386;8.370;2023-04-24T08:31:31;12.40;99.90
31991;DHT22;18508;49.386;8.370;2023-04-24T08:34:01;12.20;99.90
31991;DHT22;18508;49.386;8.370;2023-04-24T08:36:30;12.20;99.90
31991;DHT22;18508;49.386;8.370;2023-04-24T08:39:14;12.20;99.90
31991;DHT22;18508;49.386;8.370;2023-04-24T08:41:43;12.20;99.90
31991;DHT22;18508;49.386;8.370;2023-04-24T08:44:12;12.20;99.90
31991;DHT22;18508;49.386;8.370;2023-04-24T08:46:43;12.60;99.90
31991;DHT22;18508;49.386;8.370;2023-04-24T08:49:14;12.80;60.50
31991;DHT22;18508;49.386;8.370;2023-04-24T08:51:45;12.90;16.50
31991;DHT22;18508;49.386;8.370;2023-04-24T08:54:15;13.00;43.60
31991;DHT22;18508;49.386;8.370;2023-04-24T08:56:45;13.10;1.00
31991;DHT22;18508;49.386;8.370;2023-04-24T08:59:18;13.20;1.00
31991;DHT22;18508;49.386;8.370;2023-04-24T09:01:48;13.20;1.00
31991;DHT22;18508;49.386;8.370;2023-04-24T09:04:18;12.90;1.00
31991;DHT22;18508;49.386;8.370;2023-04-24T09:06:55;12.60;9.80
31991;DHT22;18508;49.386;8.370;2023-04-24T09:09:25;12.30;1.00
31991;DHT22;18508;49.386;8.370;2023-04-24T09:11:53;12.20;70.50
31991;DHT22;18508;49.386;8.370;2023-04-24T09:14:23;12.10;81.00
31991;DHT22;18508;49.386;8.370;2023-04-24T09:16:53;12.10;9.50
31991;DHT22;18508;49.386;8.370;2023-04-24T09:19:22;12.10;1.00
31991;DHT22;18508;49.386;8.370;2023-04-24T09:21:52;12.10;1.00
31991;DHT22;18508;49.386;8.370;2023-04-24T09:24:22;12.30;1.00
31991;DHT22;18508;49.386;8.370;2023-04-24T09:26:58;12.50;1.00
31991;DHT22;18508;49.386;8.370;2023-04-24T09:29:29;12.90;1.00
31991;DHT22;18508;49.386;8.370;2023-04-24T09:31:58;13.30;1.00
31991;DHT22;18508;49.386;8.370;2023-04-24T09:34:27;13.50;1.00
31991;DHT22;18508;49.386;8.370;2023-04-24T09:36:58;13.60;1.00
31991;DHT22;18508;49.386;8.370;2023-04-24T09:39:28;13.90;1.00
31991;DHT22;18508;49.386;8.370;2023-04-24T09:42:01;14.40;1.00
31991;DHT22;18508;49.386;8.370;2023-04-24T09:44:34;14.60;1.00
31991;DHT22;18508;49.386;8.370;2023-04-24T09:47:03;14.70;1.00
31991;DHT22;18508;49.386;8.370;2023-04-24T09:49:37;14.40;1.00
31991;DHT22;18508;49.386;8.370;2023-04-24T09:52:10;14.20;99.90
31991;DHT22;18508;49.386;8.370;2023-04-24T09:54:40;14.10;99.90
31991;DHT22;18508;49.386;8.370;2023-04-24T09:57:09;13.90;99.90
31991;DHT22;18508;49.386;8.370;2023-04-24T09:59:42;13.40;99.90
31991;DHT22;18508;49.386;8.370;2023-04-24T10:02:17;13.40;99.90
31991;DHT22;18508;49.386;8.370;2023-04-24T10:04:54;13.00;1.00
31991;DHT22;18508;49.386;8.370;2023-04-24T10:07:25;13.00;1.00
31991;DHT22;18508;49.386;8.370;2023-04-24T10:09:54;12.90;1.00
31991;DHT22;18508;49.386;8.370;2023-04-24T10:12:24;12.60;1.00
31991;DHT22;18508;49.386;8.370;2023-04-24T10:14:54;12.50;1.00
31991;DHT22;18508;49.386;8.370;2023-04-24T10:17:23;12.30;1.00
31991;DHT22;18508;49.386;8.370;2023-04-24T10:19:52;12.30;1.00
31991;DHT22;18508;49.386;8.370;2023-04-24T10:22:23;12.50;1.00
31991;DHT22;18508;49.386;8.370;2023-04-24T10:24:52;12.70;1.00
31991;DHT22;18508;49.386;8.370;2023-04-24T10:27:23;12.70;1.00
31991;DHT22;18508;49.386;8.370;2023-04-24T10:29:54;13.20;1.00
31991;DHT22;18508;49.386;8.370;2023-04-24T10:32:22;13.40;1.00
31991;DHT22;18508;49.386;8.370;2023-04-24T10:34:51;13.90;1.00
31991;DHT22;18508;49.386;8.370;2023-04-24T10:37:20;14.10;1.00
31991;DHT22;18508;49.386;8.370;2023-04-24T10:39:49;14.50;1.00
31991;DHT22;18508;49.386;8.370;2023-04-24T10:42:18;14.70;1.00
31991;DHT22;18508;49.386;8.370;2023-04-24T10:44:52;15.00;99.90
31991;DHT22;18508;49.386;8.370;2023-04-24T10:47:27;15.00;99.90
31991;DHT22;18508;49.386;8.370;2023-04-24T10:49:59;14.90;99.90
31991;DHT22;18508;49.386;8.370;2023-04-24T10:52:46;14.90;99.90
31991;DHT22;18508;49.386;8.370;2023-04-24T10:55:14;14.40;99.90
31991;DHT22;18508;49.386;8.370;2023-04-24T10:58:01;14.30;99.90
31991;DHT22;18508;49.386;8.370;2023-04-24T11:00:32;14.30;99.90
31991;DHT22;18508;49.386;8.370;2023-04-24T11:03:01;14.00;1.00
31991;DHT22;18508;49.386;8.370;2023-04-24T11:05:54;13.90;1.00
31991;DHT22;18508;49.386;8.370;2023-04-24T11:08:28;14.20;1.00
31991;DHT22;18508;49.386;8.370;2023-04-24T11:10:58;14.00;1.00
31991;DHT22;18508;49.386;8.370;2023-04-24T11:14:08;14.00;99.90
31991;DHT22;18508;49.386;8.370;2023-04-24T11:16:44;13.90;1.00
31991;DHT22;18508;49.386;8.370;2023-04-24T11:19:22;13.80;1.00
31991;DHT22;18508;49.386;8.370;2023-04-24T11:21:57;14.10;1.00
31991;DHT22;18508;49.386;8.370;2023-04-24T11:24:32;14.40;99.90
31991;DHT22;18508;49.386;8.370;2023-04-24T11:27:06;14.50;99.90
31991;DHT22;18508;49.386;8.370;2023-04-24T11:29:45;14.70;99.90
31991;DHT22;18508;49.386;8.370;2023-04-24T11:32:26;15.10;99.90
31991;DHT22;18508;49.386;8.370;2023-04-24T11:34:55;15.20;99.90
31991;DHT22;18508;49.386;8.370;2023-04-24T11:37:26;15.50;99.90
31991;DHT22;18508;49.386;8.370;2023-04-24T11:39:58;15.60;47.50
31991;DHT22;18508;49.386;8.370;2023-04-24T11:42:28;15.20;1.00
31991;DHT22;18508;49.386;8.370;2023-04-24T11:44:56;15.10;1.00
31991;DHT22;18508;49.386;8.370;2023-04-24T11:47:32;15.00;19.80
31991;DHT22;18508;49.386;8.370;2023-04-24T11:50:04;14.30;90.30
31991;DHT22;18508;49.386;8.370;2023-04-24T11:52:36;14.20;99.90
31991;DHT22;18508;49.386;8.370;2023-04-24T11:55:07;13.90;64.90
31991;DHT22;18508;49.386;8.370;2023-04-24T11:57:36;13.90;99.90
31991;DHT22;18508;49.386;8.370;2023-04-24T12:00:05;14.00;99.90
31991;DHT22;18508;49.386;8.370;2023-04-24T12:02:36;13.80;99.90
31991;DHT22;18508;49.386;8.370;2023-04-24T12:05:07;13.80;99.90
31991;DHT22;18508;49.386;8.370;2023-04-24T12:07:41;14.00;99.90
31991;DHT22;18508;49.386;8.370;2023-04-24T12:10:10;14.10;99.90
31991;DHT22;18508;49.386;8.370;2023-04-24T12:12:38;14.20;96.30
31991;DHT22;18508;49.386;8.370;2023-04-24T12:15:09;14.30;30.20
31991;DHT22;18508;49.386;8.370;2023-04-24T12:17:41;14.30;52.10
31991;DHT22;18508;49.386;8.370;2023-04-24T12:20:11;14.50;1.00
31991;DHT22;18508;49.386;8.370;2023-04-24T12:22:43;14.60;1.00
31991;DHT22;18508;49.386;8.370;2023-04-24T12:25:14;14.50;1.00
31991;DHT22;18508;49.386;8.370;2023-04-24T12:27:43;14.80;1.00
31991;DHT22;18508;49.386;8.370;2023-04-24T12:30:13;14.90;1.00
31991;DHT22;18508;49.386;8.370;2023-04-24T12:32:45;14.90;1.00
31991;DHT22;18508;49.386;8.370;2023-04-24T12:35:19;16.10;35.60
31991;DHT22;18508;49.386;8.370;2023-04-24T12:37:47;16.20;1.00
31991;DHT22;18508;49.386;8.370;2023-04-24T12:40:18;16.10;1.00
31991;DHT22;18508;49.386;8.370;2023-04-24T12:42:47;16.20;1.00
31991;DHT22;18508;49.386;8.370;2023-04-24T12:45:17;16.20;1.00
31991;DHT22;18508;49.386;8.370;2023-04-24T12:47:48;16.50;1.00
31991;DHT22;18508;49.386;8.370;2023-04-24T12:50:17;16.50;1.00
31991;DHT22;18508;49.386;8.370;2023-04-24T12:52:45;16.40;1.00
31991;DHT22;18508;49.386;8.370;2023-04-24T12:55:14;16.70;1.00
31991;DHT22;18508;49.386;8.370;2023-04-24T12:57:42;16.80;1.00
31991;DHT22;18508;49.386;8.370;2023-04-24T13:00:11;16.70;1.00
31991;DHT22;18508;49.386;8.370;2023-04-24T13:02:39;16.60;1.00
31991;DHT22;18508;49.386;8.370;2023-04-24T13:05:10;16.50;1.00
31991;DHT22;18508;49.386;8.370;2023-04-24T13:07:40;16.40;99.90
31991;DHT22;18508;49.386;8.370;2023-04-24T13:10:09;16.20;1.00
31991;DHT22;18508;49.386;8.370;2023-04-24T13:12:37;15.80;1.00
31991;DHT22;18508;49.386;8.370;2023-04-24T13:15:06;15.70;99.90
31991;DHT22;18508;49.386;8.370;2023-04-24T13:20:05;15.70;99.90
31991;DHT22;18508;49.386;8.370;2023-04-24T13:22:35;15.70;99.90
31991;DHT22;18508;49.386;8.370;2023-04-24T13:25:05;15.70;99.90
31991;DHT22;18508;49.386;8.370;2023-04-24T13:27:34;15.70;1.00
31991;DHT22;18508;49.386;8.370;2023-04-24T13:30:02;15.60;99.90
31991;DHT22;18508;49.386;8.370;2023-04-24T13:32:32;15.80;99.90
31991;DHT22;18508;49.386;8.370;2023-04-24T13:35:02;15.70;99.90
31991;DHT22;18508;49.386;8.370;2023-04-24T13:37:31;15.70;99.90
31991;DHT22;18508;49.386;8.370;2023-04-24T13:40:00;15.50;99.90
31991;DHT22;18508;49.386;8.370;2023-04-24T13:42:28;15.50;99.90
31991;DHT22;18508;49.386;8.370;2023-04-24T13:44:56;15.30;99.90
31991;DHT22;18508;49.386;8.370;2023-04-24T13:47:26;15.10;99.90
31991;DHT22;18508;49.386;8.370;2023-04-24T13:49:55;15.00;83.20
31991;DHT22;18508;49.386;8.370;2023-04-24T13:52:23;15.10;91.80
31991;DHT22;18508;49.386;8.370;2023-04-24T13:54:53;15.00;99.90
31991;DHT22;18508;49.386;8.370;2023-04-24T13:57:23;14.70;1.00
31991;DHT22;18508;49.386;8.370;2023-04-24T13:59:52;14.80;1.00
31991;DHT22;18508;49.386;8.370;2023-04-24T14:02:20;14.70;60.80
31991;DHT22;18508;49.386;8.370;2023-04-24T14:04:48;14.50;99.90
31991;DHT22;18508;49.386;8.370;2023-04-24T14:07:16;14.50;99.90
31991;DHT22;18508;49.386;8.370;2023-04-24T14:09:45;14.50;99.90
31991;DHT22;18508;49.386;8.370;2023-04-24T14:12:14;14.50;99.90
31991;DHT22;18508;49.386;8.370;2023-04-24T14:14:47;14.70;1.00
31991;DHT22;18508;49.386;8.370;2023-04-24T14:17:16;14.80;1.00
31991;DHT22;18508;49.386;8.370;2023-04-24T14:19:44;14.90;1.00
31991;DHT22;18508;49.386;8.370;2023-04-24T14:22:13;14.80;1.00
31991;DHT22;18508;49.386;8.370;2023-04-24T14:24:42;14.60;1.00
31991;DHT22;18508;49.386;8.370;2023-04-24T14:27:10;14.50;40.80
31991;DHT22;18508;49.386;8.370;2023-04-24T14:29:39;14.40;99.90
31991;DHT22;18508;49.386;8.370;2023-04-24T14:32:09;14.20;99.90
31991;DHT22;18508;49.386;8.370;2023-04-24T14:34:38;14.10;1.00
31991;DHT22;18508;49.386;8.370;2023-04-24T14:37:07;13.90;23.60
31991;DHT22;18508;49.386;8.370;2023-04-24T14:39:35;13.70;1.00
31991;DHT22;18508;49.386;8.370;2023-04-24T14:42:04;13.80;1.00
31991;DHT22;18508;49.386;8.370;2023-04-24T14:44:32;15.10;1.00
31991;DHT22;18508;49.386;8.370;2023-04-24T14:47:01;16.00;99.90
31991;DHT22;18508;49.386;8.370;2023-04-24T14:49:30;16.80;1.00
31991;DHT22;18508;49.386;8.370;2023-04-24T14:54:29;16.50;80.90
31991;DHT22;18508;49.386;8.370;2023-04-24T14:56:58;16.20;1.00
31991;DHT22;18508;49.386;8.370;2023-04-24T14:59:28;16.00;1.00
31991;DHT22;18508;49.386;8.370;2023-04-24T15:01:58;15.90;99.90
31991;DHT22;18508;49.386;8.370;2023-04-24T15:04:42;15.40;99.90
31991;DHT22;18508;49.386;8.370;2023-04-24T15:07:12;15.20;99.90
31991;DHT22;18508;49.386;8.370;2023-04-24T15:09:40;14.90;99.90
31991;DHT22;18508;49.386;8.370;2023-04-24T15:12:09;15.00;99.90
31991;DHT22;18508;49.386;8.370;2023-04-24T15:14:39;14.70;1.00
31991;DHT22;18508;49.386;8.370;2023-04-24T15:17:07;14.60;1.00
31991;DHT22;18508;49.386;8.370;2023-04-24T15:19:38;14.30;1.00
31991;DHT22;18508;49.386;8.370;2023-04-24T15:22:09;14.20;1.00
31991;DHT22;18508;49.386;8.370;2023-04-24T15:24:38;14.00;99.90
31991;DHT22;18508;49.386;8.370;2023-04-24T15:27:09;13.90;99.90
31991;DHT22;18508;49.386;8.370;2023-04-24T15:29:41;13.70;1.00
31991;DHT22;18508;49.386;8.370;2023-04-24T15:32:11;13.50;99.90
31991;DHT22;18508;49.386;8.370;2023-04-24T15:34:40;13.50;99.90
31991;DHT22;18508;49.386;8.370;2023-04-24T15:37:14;13.50;1.00
31991;DHT22;18508;49.386;8.370;2023-04-24T15:39:44;13.70;1.00
31991;DHT22;18508;49.386;8.370;2023-04-24T15:42:13;13.90;1.00
31991;DHT22;18508;49.386;8.370;2023-04-24T15:44:41;14.10;1.00
31991;DHT22;18508;49.386;8.370;2023-04-24T15:47:11;14.20;1.00
31991;DHT22;18508;49.386;8.370;2023-04-24T15:49:41;14.30;1.00
31991;DHT22;18508;49.386;8.370;2023-04-24T15:52:09;14.50;99.90
31991;DHT22;18508;49.386;8.370;2023-04-24T15:54:38;14.60;99.90
31991;DHT22;18508;49.386;8.370;2023-04-24T15:57:07;14.80;99.90
31991;DHT22;18508;49.386;8.370;2023-04-24T15:59:35;15.50;1.00
31991;DHT22;18508;49.386;8.370;2023-04-24T16:02:03;16.30;1.00
31991;DHT22;18508;49.386;8.370;2023-04-24T16:04:31;16.40;99.90
31991;DHT22;18508;49.386;8.370;2023-04-24T16:07:01;16.40;99.90
31991;DHT22;18508;49.386;8.370;2023-04-24T16:09:29;17.60;99.90